createdAt,value
2019-06-20T00:03:10.385Z,5.00
2019-06-20T00:08:13.823Z,4.37
2019-06-20T00:13:17.267Z,4.60
2019-06-20T00:18:20.675Z,4.53
2019-06-20T00:23:24.198Z,4.77
2019-06-20T00:28:27.649Z,5.53
2019-06-20T00:33:31.124Z,6.10
2019-06-20T00:38:34.504Z,6.33
2019-06-20T00:43:37.839Z,6.20
2019-06-20T00:48:41.187Z,6.53
2019-06-20T00:53:44.601Z,6.37
2019-06-20T00:58:48.229Z,6.03
2019-06-20T01:03:51.571Z,5.77
2019-06-20T01:08:54.910Z,6.47
2019-06-20T01:13:58.321Z,7.00
2019-06-20T01:19:01.765Z,6.63
2019-06-20T01:24:05.390Z,6.20
2019-06-20T01:29:08.900Z,6.53
2019-06-20T01:34:12.283Z,6.00
2019-06-20T01:39:15.728Z,6.03
2019-06-20T01:44:19.060Z,5.67
2019-06-20T01:49:22.555Z,4.77
2019-06-20T01:54:25.892Z,5.97
2019-06-20T01:59:29.334Z,5.43
2019-06-20T02:04:32.806Z,4.50
2019-06-20T02:09:36.142Z,6.17
2019-06-20T02:14:39.502Z,4.47
2019-06-20T02:19:42.823Z,3.30
2019-06-20T02:24:46.182Z,2.93
2019-06-20T02:29:49.515Z,3.10
2019-06-20T02:34:52.840Z,2.50
2019-06-20T02:39:56.232Z,2.80
2019-06-20T02:44:59.748Z,2.80
2019-06-20T02:50:03.501Z,3.20
2019-06-20T02:55:07.570Z,3.40
2019-06-20T03:00:12.646Z,2.63
2019-06-20T03:05:16.304Z,2.50
2019-06-20T03:10:19.708Z,2.90
2019-06-20T03:15:23.032Z,2.40
2019-06-20T03:20:26.363Z,2.70
2019-06-20T03:25:29.792Z,2.07
2019-06-20T03:30:33.230Z,2.30
2019-06-20T03:35:36.582Z,2.10
2019-06-20T03:40:39.967Z,2.30
2019-06-20T03:45:43.401Z,2.27
2019-06-20T03:50:47.838Z,2.07
2019-06-20T03:55:51.279Z,2.27
2019-06-20T04:00:55.588Z,2.10
2019-06-20T04:05:58.936Z,2.33
2019-06-20T04:11:02.529Z,1.90
2019-06-20T04:16:07.618Z,1.90
2019-06-20T04:21:10.994Z,2.23
2019-06-20T04:26:14.426Z,1.77
2019-06-20T04:31:17.898Z,1.63
2019-06-20T04:36:21.287Z,1.63
2019-06-20T04:41:25.749Z,1.53
2019-06-20T04:46:30.700Z,1.63
2019-06-20T04:51:34.072Z,1.90
2019-06-20T04:56:37.517Z,2.27
2019-06-20T05:01:40.882Z,2.07
2019-06-20T05:06:46.385Z,2.07
2019-06-20T05:11:49.725Z,2.37
2019-06-20T05:16:53.267Z,2.00
2019-06-20T05:21:56.661Z,2.30
2019-06-20T05:27:00.042Z,2.53
2019-06-20T05:32:03.349Z,2.30
2019-06-20T05:37:06.783Z,2.40
2019-06-20T05:42:11.150Z,2.33
2019-06-20T05:47:14.527Z,2.00
2019-06-20T05:52:17.858Z,2.07
2019-06-20T05:57:22.379Z,2.37
2019-06-20T06:02:25.898Z,2.20
2019-06-20T06:07:29.236Z,2.40
2019-06-20T06:12:32.577Z,2.10
2019-06-20T06:17:36.087Z,2.00
2019-06-20T06:22:39.545Z,2.20
2019-06-20T06:27:42.948Z,2.40
2019-06-20T06:32:46.322Z,2.03
2019-06-20T06:37:49.786Z,3.27
2019-06-20T06:42:53.152Z,2.60
2019-06-20T06:47:56.621Z,2.40
2019-06-20T06:52:59.963Z,2.57
2019-06-20T06:58:03.517Z,2.20
2019-06-20T07:03:07.928Z,1.87
2019-06-20T07:08:11.336Z,2.47
2019-06-20T07:13:14.828Z,2.37
2019-06-20T07:18:18.195Z,2.30
2019-06-20T07:23:21.693Z,1.90
2019-06-20T07:28:25.021Z,1.93
2019-06-20T07:33:28.369Z,2.50
2019-06-20T07:38:31.777Z,2.13
2019-06-20T07:43:35.223Z,2.90
2019-06-20T07:48:38.647Z,2.50
2019-06-20T07:53:42.077Z,1.70
2019-06-20T07:58:45.467Z,2.40
2019-06-20T08:03:48.868Z,2.40
2019-06-20T08:08:52.305Z,2.30
2019-06-20T08:13:55.654Z,2.47
2019-06-20T08:18:59.010Z,2.10
2019-06-20T08:24:02.439Z,1.73
2019-06-20T08:29:18.703Z,1.73
2019-06-20T08:34:10.955Z,1.90
2019-06-20T08:39:14.405Z,1.70
2019-06-20T08:44:17.814Z,1.90
2019-06-20T08:49:21.225Z,1.80
2019-06-20T08:54:24.591Z,1.63
2019-06-20T08:59:27.962Z,1.80
2019-06-20T09:04:31.333Z,1.47
2019-06-20T09:09:34.811Z,1.67
2019-06-20T09:14:38.610Z,1.30
2019-06-20T09:19:42.055Z,1.60
2019-06-20T09:24:45.706Z,1.43
2019-06-20T09:29:49.185Z,1.97
2019-06-20T09:34:53.073Z,2.70
2019-06-20T09:39:57.574Z,2.17
2019-06-20T09:45:01.099Z,2.10
2019-06-20T09:50:09.360Z,1.90
2019-06-20T09:55:12.827Z,1.80
2019-06-20T10:00:19.418Z,1.43
2019-06-20T10:05:22.921Z,2.37
2019-06-20T10:10:28.716Z,1.23
2019-06-20T10:15:35.530Z,3.40
2019-06-20T10:20:39.758Z,1.00
2019-06-20T10:25:43.249Z,1.00
2019-06-20T10:30:46.781Z,1.00
2019-06-20T10:35:50.427Z,1.03
2019-06-20T10:40:54.105Z,1.03
2019-06-20T10:45:57.931Z,1.17
2019-06-20T10:51:19.538Z,1.10
2019-06-20T10:56:22.889Z,0.87
2019-06-20T11:01:26.308Z,0.90
2019-06-20T11:06:29.639Z,1.07
2019-06-20T11:11:32.999Z,1.20
2019-06-20T11:16:36.495Z,1.07
2019-06-20T11:21:41.321Z,0.90
2019-06-20T11:26:46.024Z,0.80
2019-06-20T11:31:49.688Z,1.40
2019-06-20T11:36:53.116Z,1.10
2019-06-20T11:41:56.614Z,1.23
2019-06-20T11:47:00.267Z,1.47
2019-06-20T11:52:03.896Z,1.47
2019-06-20T11:57:07.293Z,1.27
2019-06-20T12:02:10.666Z,1.17
2019-06-20T12:07:14.173Z,1.73
2019-06-20T12:12:17.590Z,1.90
2019-06-20T12:17:20.965Z,1.90
2019-06-20T12:22:24.695Z,1.67
2019-06-20T12:27:28.132Z,1.63
2019-06-20T12:32:31.496Z,1.57
2019-06-20T12:37:34.838Z,1.60
2019-06-20T12:42:40.980Z,1.53
2019-06-20T12:47:43.989Z,1.60
2019-06-20T12:52:47.816Z,2.10
2019-06-20T12:57:52.667Z,1.93
2019-06-20T13:02:56.129Z,1.83
2019-06-20T13:07:59.502Z,1.93
2019-06-20T13:13:02.884Z,1.70
2019-06-20T13:18:06.367Z,1.73
2019-06-20T13:23:09.739Z,2.00
2019-06-20T13:28:13.151Z,1.73
2019-06-20T13:33:16.642Z,1.50
2019-06-20T13:38:19.981Z,2.37
2019-06-20T13:43:23.400Z,1.90
2019-06-20T13:48:26.846Z,2.27
2019-06-20T13:53:30.200Z,1.67
2019-06-20T13:58:33.606Z,2.30
2019-06-20T14:03:36.935Z,1.70
2019-06-20T14:08:42.382Z,2.22
2019-06-20T14:13:49.280Z,2.03
2019-06-20T14:18:50.432Z,1.90
2019-06-20T14:23:53.937Z,1.70
2019-06-20T14:28:57.492Z,2.12
2019-06-20T14:34:00.889Z,1.90
2019-06-20T14:39:06.549Z,1.55
2019-06-20T14:44:09.919Z,1.55
2019-06-20T14:49:13.262Z,2.20
2019-06-20T14:54:19.594Z,1.85
2019-06-20T15:04:39.357Z,1.40
2019-06-20T15:09:42.744Z,1.87
2019-06-20T15:14:47.997Z,2.00
2019-06-20T15:19:51.448Z,1.60
2019-06-20T15:24:55.690Z,1.67
2019-06-20T15:30:00.303Z,1.97
2019-06-20T15:35:08.203Z,1.65
2019-06-20T15:40:11.728Z,1.50
2019-06-20T15:45:15.331Z,1.90
2019-06-20T15:50:19.953Z,1.83
2019-06-20T15:55:23.313Z,1.57
2019-06-20T16:00:26.847Z,1.17
2019-06-20T16:05:30.448Z,1.10
2019-06-20T16:10:33.803Z,0.70
2019-06-20T16:15:37.164Z,1.30
2019-06-20T16:20:40.499Z,1.17
2019-06-20T16:25:43.916Z,1.13
2019-06-20T16:30:47.271Z,0.67
2019-06-20T16:35:50.623Z,0.83
2019-06-20T16:40:54.112Z,0.73
2019-06-20T16:45:57.468Z,1.10
2019-06-20T16:51:01.189Z,1.20
2019-06-20T16:56:04.812Z,3.60
2019-06-20T17:01:08.222Z,1.53
2019-06-20T17:06:11.684Z,1.20
2019-06-20T17:11:15.104Z,1.73
2019-06-20T17:16:18.642Z,1.07
2019-06-20T17:21:22.143Z,1.10
2019-06-20T17:26:26.042Z,1.17
2019-06-20T17:31:29.384Z,1.30
2019-06-20T17:36:32.773Z,1.00
2019-06-20T17:41:36.240Z,1.20
2019-06-20T17:46:39.560Z,1.43
2019-06-20T17:51:42.933Z,1.30
2019-06-20T17:56:46.337Z,1.67
2019-06-20T18:01:49.726Z,1.37
2019-06-20T18:06:53.234Z,1.30
2019-06-20T18:11:56.660Z,1.47
2019-06-20T18:17:00.117Z,1.60
2019-06-20T18:22:03.501Z,1.47
2019-06-20T18:27:07.049Z,1.60
2019-06-20T18:32:10.472Z,1.37
2019-06-20T18:37:27.723Z,1.60
2019-06-20T18:42:19.027Z,1.90
2019-06-20T18:47:22.399Z,1.67
2019-06-20T18:52:25.821Z,1.53
2019-06-20T18:57:29.198Z,1.90
2019-06-20T19:02:32.629Z,2.00
2019-06-20T19:07:36.012Z,1.80
2019-06-20T19:12:39.438Z,2.00
2019-06-20T19:17:42.780Z,2.40
2019-06-20T19:22:46.400Z,1.87
2019-06-20T19:27:49.877Z,1.80
2019-06-20T19:32:53.256Z,1.93
2019-06-20T19:37:56.847Z,2.00
2019-06-20T19:43:00.223Z,1.80
2019-06-20T19:48:03.947Z,1.77
2019-06-20T19:53:07.550Z,2.10
2019-06-20T19:58:10.993Z,1.80
2019-06-20T20:03:14.520Z,1.93
2019-06-20T20:08:18.130Z,2.50
2019-06-20T20:13:21.508Z,2.27
2019-06-20T20:18:25.200Z,2.53
2019-06-20T20:23:28.789Z,2.30
2019-06-20T20:28:32.228Z,2.43
2019-06-20T20:33:36.200Z,2.77
2019-06-20T20:38:39.578Z,2.50
2019-06-20T20:43:43.129Z,2.40
2019-06-20T20:48:47.141Z,2.73
2019-06-20T20:53:50.713Z,3.07
2019-06-20T20:58:54.146Z,2.77
2019-06-20T21:03:57.783Z,2.87
2019-06-20T21:09:01.340Z,3.23
2019-06-20T21:14:04.871Z,2.50
2019-06-20T21:19:08.330Z,2.83
2019-06-20T21:24:11.697Z,2.60
2019-06-20T21:29:15.209Z,2.67
2019-06-20T21:34:18.606Z,1.97
2019-06-20T21:39:22.048Z,2.53
2019-06-20T21:44:25.355Z,2.90
2019-06-20T21:49:28.939Z,2.57
2019-06-20T21:54:32.327Z,6.67
2019-06-20T21:59:35.741Z,3.57
2019-06-20T22:04:53.693Z,2.80
2019-06-20T22:09:44.366Z,2.33
2019-06-20T22:14:47.760Z,2.57
2019-06-20T22:19:51.156Z,2.50
2019-06-20T22:24:54.499Z,2.70
2019-06-20T22:29:57.999Z,2.90
2019-06-20T22:35:01.453Z,2.50
2019-06-20T22:40:09.886Z,2.27
2019-06-20T22:45:14.289Z,2.60
2019-06-20T22:50:17.745Z,3.00
2019-06-20T22:55:21.370Z,2.60
2019-06-20T23:00:24.734Z,2.37
2019-06-20T23:05:28.130Z,2.17
2019-06-20T23:10:31.590Z,2.13
2019-06-20T23:15:34.916Z,2.50
2019-06-20T23:20:38.281Z,2.37
2019-06-20T23:25:43.405Z,3.10
2019-06-20T23:30:46.840Z,2.50
2019-06-20T23:35:50.225Z,2.53
2019-06-20T23:40:53.655Z,2.67
2019-06-20T23:45:57.006Z,2.83
2019-06-20T23:51:00.353Z,2.57
2019-06-20T23:56:07.742Z,3.10
